Time;durP1;ratioP1;P1;durP2;ratioP2;P2;SDS_P1;SDS_P2;PMS_P1;PMS_P2;Temp;Humidity;BMP_temperature;BMP_pressure;BME280_temperature;BME280_humidity;BME280_pressure;Samples;Min_cycle;Max_cycle;Signal;HPM_P1;HPM_P2
2022/04/11 07:04:17;;;;;;;;;;;;;;;;;;;;;
2022/04/11 07:07:00;;;;;;;;;;;;;;;;;;;;;
2022/04/11 07:10:00;;;;;;;;;;;;;;;;;;;;;
2022/04/11 07:37:30;;;;;;;7.50;6.80;;;19.20;53.20;;;;;;5954211;23;20488;-89
2022/04/11 07:39:57;;;;;;;7.60;6.67;;;19.70;51.90;;;;;;6118175;23;20436;-90
2022/04/11 07:42:24;;;;;;;8.40;7.60;;;20.10;50.00;;;;;;6177478;23;20683;-90
2022/04/11 07:44:50;;;;;;;7.07;6.37;;;19.60;50.50;;;;;;6159929;23;20768;-90
2022/04/11 07:47:17;;;;;;;6.53;5.90;;;20.00;50.90;;;;;;6159427;23;20456;-89
2022/04/11 07:49:44;;;;;;;9.70;6.20;;;20.30;50.30;;;;;;6170739;23;20397;-89
2022/04/11 07:52:11;;;;;;;9.27;6.67;;;20.60;49.60;;;;;;6183168;23;20394;-90
2022/04/11 07:54:39;;;;;;;6.57;5.97;;;20.10;49.50;;;;;;6168373;23;20430;-89
2022/04/11 07:57:08;;;;;;;9.80;6.60;;;21.00;49.00;;;;;;6158467;23;20434;-90
2022/04/11 07:59:35;;;;;;;7.40;6.70;;;21.70;48.40;;;;;;6157682;23;20442;-90
2022/04/11 08:02:02;;;;;;;7.10;6.40;;;20.70;46.70;;;;;;6161011;23;20436;-90
2022/04/11 08:04:29;;;;;;;8.93;7.53;;;18.80;49.40;;;;;;6159394;23;20515;-88
2022/04/11 08:06:55;;;;;;;7.73;6.93;;;18.60;50.90;;;;;;6158291;23;20411;-90
2022/04/11 08:09:22;;;;;;;9.77;7.30;;;19.20;50.90;;;;;;6158593;23;20392;-90
2022/04/11 08:11:50;;;;;;;9.53;7.63;;;19.30;50.00;;;;;;6163452;23;20392;-89
2022/04/11 08:14:17;;;;;;;7.30;6.40;;;19.00;49.90;;;;;;6167845;23;20408;-90
2022/04/11 08:16:44;;;;;;;8.90;6.83;;;19.50;48.70;;;;;;6164223;23;20397;-89
2022/04/11 08:19:10;;;;;;;7.00;6.40;;;20.20;47.40;;;;;;6161488;23;20437;-90
2022/04/11 08:21:39;;;;;;;7.17;5.47;;;20.70;46.80;;;;;;6159463;23;20432;-86
2022/04/11 08:24:07;;;;;;;6.63;5.20;;;20.20;45.50;;;;;;6159144;23;20480;-87
2022/04/11 08:26:34;;;;;;;7.80;6.07;;;20.40;45.90;;;;;;6164462;23;20433;-89
2022/04/11 08:29:02;;;;;;;6.73;5.43;;;19.40;45.20;;;;;;6163722;23;20423;-88
2022/04/11 08:31:31;;;;;;;5.67;5.27;;;18.00;45.90;;;;;;6181548;23;20407;-90
2022/04/11 08:34:01;;;;;;;5.13;4.67;;;17.60;48.50;;;;;;6170877;23;20391;-87
2022/04/11 08:36:28;;;;;;;6.10;5.60;;;17.70;47.40;;;;;;6162199;23;20398;-86
2022/04/11 08:38:55;;;;;;;5.87;4.43;;;18.70;48.50;;;;;;6158598;23;20931;-87
2022/04/11 08:41:22;;;;;;;7.53;5.10;;;19.80;46.30;;;;;;6159710;23;20443;-87
2022/04/11 08:43:49;;;;;;;4.97;4.50;;;20.10;45.90;;;;;;6160030;23;20409;-86
2022/04/11 08:46:18;;;;;;;5.07;4.67;;;21.60;44.60;;;;;;6158835;23;20518;-86
2022/04/11 08:48:45;;;;;;;6.93;4.50;;;22.70;42.80;;;;;;6160772;23;20417;-86
2022/04/11 08:51:12;;;;;;;6.23;4.17;;;23.00;41.80;;;;;;6162356;23;20413;-87
2022/04/11 08:53:39;;;;;;;6.07;4.47;;;23.80;40.70;;;;;;6169837;23;20395;-85
2022/04/11 08:56:06;;;;;;;9.10;4.50;;;24.20;39.50;;;;;;6171970;23;20480;-87
2022/04/11 08:58:32;;;;;;;5.30;4.10;;;22.50;39.20;;;;;;6160879;23;20408;-87
2022/04/11 09:01:00;;;;;;;3.40;3.10;;;22.20;40.00;;;;;;6180356;23;20448;-87
2022/04/11 09:03:28;;;;;;;3.83;3.30;;;22.60;41.20;;;;;;6182803;23;20415;-86
2022/04/11 09:06:07;;;;;;;3.60;3.30;;;22.80;39.30;;;;;;6183845;23;20416;-88
2022/04/11 09:08:42;;;;;;;3.20;2.90;;;22.30;39.00;;;;;;6183555;23;20402;-86
2022/04/11 09:11:09;;;;;;;4.13;3.73;;;22.90;39.30;;;;;;6181434;23;20402;-87
2022/04/11 09:13:49;;;;;;;4.50;3.83;;;22.30;39.10;;;;;;6177061;23;20408;-86
2022/04/11 09:16:16;;;;;;;4.37;3.47;;;23.20;39.20;;;;;;6181005;23;20562;-87
2022/04/11 09:18:49;;;;;;;3.63;3.30;;;23.20;37.90;;;;;;6183496;23;20396;-87
2022/04/11 09:21:16;;;;;;;3.27;2.97;;;22.80;38.00;;;;;;6182111;23;20448;-86
2022/04/11 09:23:43;;;;;;;3.90;3.60;;;23.30;37.80;;;;;;6169955;23;20413;-87
2022/04/11 09:26:17;;;;;;;3.80;3.50;;;23.40;37.40;;;;;;6161554;23;20425;-86
2022/04/11 09:28:44;;;;;;;4.60;4.00;;;23.20;37.10;;;;;;6160544;23;20405;-86
2022/04/11 09:31:11;;;;;;;4.37;3.27;;;23.90;38.30;;;;;;6158681;23;20413;-88
2022/04/11 09:33:39;;;;;;;4.07;3.77;;;23.90;37.00;;;;;;6159733;23;20409;-85
2022/04/11 09:36:07;;;;;;;4.20;3.80;;;23.00;37.70;;;;;;6163473;23;20429;-86
2022/04/11 09:38:37;;;;;;;3.30;2.73;;;23.20;36.90;;;;;;6172790;23;20427;-84
2022/04/11 09:41:04;;;;;;;2.70;2.50;;;23.20;36.70;;;;;;6159383;23;20429;-85
2022/04/11 09:43:32;;;;;;;4.03;3.33;;;23.60;35.00;;;;;;6170079;23;20442;-86
2022/04/11 09:46:02;;;;;;;2.70;2.50;;;23.00;35.40;;;;;;6174203;23;20452;-86
2022/04/11 09:48:32;;;;;;;3.43;3.03;;;23.20;35.80;;;;;;6174046;23;20415;-86
2022/04/11 09:50:59;;;;;;;3.10;2.90;;;24.20;37.60;;;;;;6165545;23;20437;-86
2022/04/11 09:53:33;;;;;;;4.37;3.43;;;24.20;34.90;;;;;;6171093;23;20455;-85
2022/04/11 09:56:03;;;;;;;4.00;3.43;;;23.60;35.90;;;;;;6165714;23;20512;-86
2022/04/11 09:58:30;;;;;;;4.07;3.33;;;23.80;36.00;;;;;;6160405;23;20775;-86
2022/04/11 10:00:59;;;;;;;3.43;2.90;;;23.40;35.80;;;;;;6164747;23;20445;-87
2022/04/11 10:03:31;;;;;;;2.93;2.73;;;24.10;36.90;;;;;;6182192;23;20406;-86
2022/04/11 10:05:59;;;;;;;2.33;2.13;;;25.60;35.40;;;;;;6182137;23;20429;-86
2022/04/11 10:08:28;;;;;;;4.13;3.23;;;24.70;33.50;;;;;;6176171;23;20881;-86
2022/04/11 10:10:57;;;;;;;4.03;2.77;;;23.80;33.70;;;;;;6172000;23;20402;-86
2022/04/11 10:13:24;;;;;;;3.53;3.10;;;24.20;34.10;;;;;;6178978;23;20469;-87
2022/04/11 10:15:51;;;;;;;5.87;3.53;;;24.40;34.60;;;;;;6177812;23;20421;-86
2022/04/11 10:18:21;;;;;;;3.70;2.83;;;24.40;35.20;;;;;;6183056;23;20394;-86
2022/04/11 10:20:51;;;;;;;3.43;3.10;;;24.90;34.40;;;;;;6164413;23;20442;-81
2022/04/11 10:23:29;;;;;;;3.03;2.83;;;25.60;33.60;;;;;;6164991;23;20414;-81
2022/04/11 10:26:00;;;;;;;2.50;2.20;;;26.20;32.00;;;;;;6165536;23;20411;-83
2022/04/11 10:28:28;;;;;;;3.47;3.17;;;26.30;31.10;;;;;;6166516;23;20386;-82
2022/04/11 10:31:08;;;;;;;5.87;3.83;;;25.80;31.70;;;;;;6163580;23;20399;-83
2022/04/11 10:33:45;;;;;;;3.50;2.80;;;25.90;32.50;;;;;;6141048;23;20387;-82
2022/04/11 10:36:31;;;;;;;3.20;2.90;;;26.30;31.30;;;;;;6141777;23;20691;-81
2022/04/11 10:39:24;;;;;;;3.43;2.93;;;25.70;30.90;;;;;;6136528;23;20435;-81
2022/04/11 10:42:12;;;;;;;2.50;2.10;;;25.20;31.10;;;;;;6141877;23;20455;-83
2022/04/11 10:44:40;;;;;;;2.80;2.50;;;24.30;30.90;;;;;;6140459;23;20395;-81
2022/04/11 10:47:29;;;;;;;3.20;2.90;;;24.70;33.20;;;;;;6137025;23;20408;-81
2022/04/11 10:50:19;;;;;;;3.60;3.07;;;25.00;32.40;;;;;;6137117;23;20427;-82
2022/04/11 10:52:46;;;;;;;3.20;2.23;;;26.20;31.00;;;;;;6137496;23;20427;-81
2022/04/11 10:55:15;;;;;;;3.47;2.70;;;26.70;30.50;;;;;;6140368;23;20820;-84
2022/04/11 10:57:44;;;;;;;3.00;2.37;;;26.30;30.50;;;;;;6138729;23;20404;-82
2022/04/11 11:00:12;;;;;;;3.07;2.77;;;26.50;30.60;;;;;;6137592;23;20467;-82
2022/04/11 11:03:13;;;;;;;6.33;2.90;;;26.90;30.20;;;;;;6138306;23;20423;-83
2022/04/11 11:05:41;;;;;;;3.97;2.57;;;25.70;30.50;;;;;;6137684;23;20392;-82
2022/04/11 11:08:35;;;;;;;2.73;2.50;;;25.90;31.90;;;;;;6136230;23;20444;-83
2022/04/11 11:11:23;;;;;;;3.00;2.30;;;25.90;30.90;;;;;;6093972;23;20439;-83
2022/04/11 11:13:52;;;;;;;3.23;2.70;;;25.40;31.00;;;;;;6130014;23;20388;-85
2022/04/11 11:16:36;;;;;;;17.10;4.77;;;25.90;30.90;;;;;;6130307;23;20404;-83
2022/04/11 11:19:14;;;;;;;3.77;3.07;;;26.00;30.30;;;;;;6136741;23;20393;-82
2022/04/11 11:22:04;;;;;;;3.83;3.47;;;26.30;30.60;;;;;;6135389;23;20458;-83
2022/04/11 11:24:31;;;;;;;3.70;2.47;;;26.80;30.40;;;;;;6129893;23;20404;-83
2022/04/11 11:27:04;;;;;;;3.77;2.80;;;26.70;29.90;;;;;;6137402;23;20419;-82
2022/04/11 11:29:34;;;;;;;3.97;2.63;;;26.90;30.60;;;;;;6130878;23;20396;-83
2022/04/11 11:32:03;;;;;;;4.00;2.80;;;27.70;29.30;;;;;;6135933;23;20434;-82
2022/04/11 11:34:32;;;;;;;2.70;2.37;;;27.20;29.10;;;;;;6136497;23;20408;-81
2022/04/11 11:37:00;;;;;;;2.67;2.20;;;25.60;30.00;;;;;;6138208;23;20410;-83
2022/04/11 11:39:28;;;;;;;3.20;2.90;;;25.00;29.40;;;;;;6129910;23;20408;-83
2022/04/11 11:42:00;;;;;;;2.93;2.63;;;25.40;30.50;;;;;;6130049;23;20962;-82
2022/04/11 11:44:27;;;;;;;2.93;2.70;;;25.20;29.30;;;;;;6131088;23;20438;-82
2022/04/11 11:46:58;;;;;;;3.07;2.47;;;25.50;30.10;;;;;;6129824;23;20479;-83
2022/04/11 11:49:26;;;;;;;3.57;2.80;;;26.40;29.90;;;;;;6129832;23;20429;-82
2022/04/11 11:51:54;;;;;;;3.07;2.73;;;25.20;30.00;;;;;;6131398;23;20431;-82
2022/04/11 11:54:34;;;;;;;3.90;2.70;;;25.00;30.10;;;;;;6132669;23;20497;-82
2022/04/11 11:57:01;;;;;;;3.70;2.67;;;24.10;30.70;;;;;;6130100;23;20426;-82
2022/04/11 11:59:28;;;;;;;4.30;3.17;;;24.90;30.00;;;;;;6140809;23;20407;-81
2022/04/11 12:04:38;;;;;;;3.20;3.00;;;25.40;31.10;;;;;;6135043;23;20372;-82
2022/04/11 12:07:05;;;;;;;3.43;2.93;;;26.70;30.00;;;;;;6132713;23;20430;-82
2022/04/11 12:09:36;;;;;;;2.97;2.77;;;26.20;29.30;;;;;;6131988;23;20399;-83
2022/04/11 12:12:04;;;;;;;4.37;2.90;;;26.70;29.90;;;;;;6130464;23;20439;-83
2022/04/11 12:14:31;;;;;;;3.20;2.77;;;26.60;28.70;;;;;;6131853;23;20407;-82
2022/04/11 12:17:01;;;;;;;4.23;2.90;;;26.10;29.80;;;;;;6131067;23;20412;-82
2022/04/11 12:19:34;;;;;;;4.10;3.27;;;26.40;29.80;;;;;;6133356;23;20400;-82
2022/04/11 12:22:12;;;;;;;2.93;2.70;;;26.30;29.10;;;;;;6138416;23;20451;-84
2022/04/11 12:24:39;;;;;;;2.97;2.70;;;26.30;29.00;;;;;;6131627;23;20740;-84
2022/04/11 12:27:10;;;;;;;4.40;2.67;;;26.40;29.80;;;;;;6130593;23;20454;-84
2022/04/11 12:29:41;;;;;;;3.03;2.70;;;27.40;28.20;;;;;;6129066;23;20470;-83
2022/04/11 12:32:14;;;;;;;5.43;2.50;;;27.30;27.90;;;;;;6127878;23;20427;-83
2022/04/11 12:34:43;;;;;;;2.97;2.77;;;27.20;27.50;;;;;;6128940;23;20395;-83
2022/04/11 12:37:12;;;;;;;2.47;2.27;;;27.30;27.30;;;;;;6128747;23;20403;-83
2022/04/11 12:39:52;;;;;;;3.00;2.63;;;27.00;26.50;;;;;;6129270;23;20420;-88
2022/04/11 12:42:19;;;;;;;3.13;2.87;;;26.50;28.30;;;;;;6136259;23;20510;-84
2022/04/11 12:44:47;;;;;;;5.10;3.33;;;26.30;28.20;;;;;;6131671;23;20467;-84
2022/04/11 12:47:15;;;;;;;3.10;2.80;;;26.10;28.30;;;;;;6133897;23;20411;-84
2022/04/11 12:49:46;;;;;;;3.43;3.10;;;26.00;28.90;;;;;;6133104;23;20419;-84
2022/04/11 12:52:15;;;;;;;11.73;3.60;;;26.50;28.50;;;;;;6132130;23;20802;-83
2022/04/11 12:54:43;;;;;;;3.33;2.73;;;26.30;28.40;;;;;;6132946;23;20411;-82
2022/04/11 12:57:12;;;;;;;2.90;2.70;;;27.30;28.70;;;;;;6133506;23;20416;-80
2022/04/11 12:59:40;;;;;;;3.23;2.93;;;27.40;27.10;;;;;;6133811;23;20764;-80
2022/04/11 13:02:08;;;;;;;2.40;2.07;;;27.50;27.40;;;;;;6133634;23;20793;-82
2022/04/11 13:04:39;;;;;;;3.37;3.07;;;27.30;26.10;;;;;;6137505;23;20410;-81
2022/04/11 13:07:07;;;;;;;3.80;3.20;;;27.80;27.10;;;;;;6141336;23;20479;-81
2022/04/11 13:09:35;;;;;;;4.17;3.40;;;27.90;26.80;;;;;;6141119;23;20411;-82
2022/04/11 13:12:02;;;;;;;5.00;3.73;;;27.70;27.20;;;;;;6141770;23;20447;-82
2022/04/11 13:14:29;;;;;;;4.57;3.80;;;27.60;27.50;;;;;;6136396;23;20435;-81
2022/04/11 13:19:42;;;;;;;5.20;3.03;;;26.80;28.00;;;;;;6141504;23;20375;-81
2022/04/11 13:22:08;;;;;;;4.10;3.33;;;27.20;27.80;;;;;;6144942;23;20459;-81
2022/04/11 13:24:35;;;;;;;3.30;2.97;;;28.20;27.60;;;;;;6141830;23;20404;-81
2022/04/11 13:27:02;;;;;;;3.93;3.63;;;27.20;27.10;;;;;;6135867;23;20408;-80
2022/04/11 13:29:29;;;;;;;6.33;3.93;;;26.80;27.80;;;;;;6137593;23;20413;-80
2022/04/11 13:31:57;;;;;;;4.30;4.00;;;26.50;27.90;;;;;;6134005;23;20420;-81
2022/04/11 13:34:23;;;;;;;3.47;3.17;;;27.00;28.10;;;;;;6133744;23;20403;-81
2022/04/11 13:36:51;;;;;;;4.40;4.10;;;27.90;27.50;;;;;;6133432;23;20404;-81
2022/04/11 13:39:18;;;;;;;3.93;3.63;;;29.90;26.70;;;;;;6133215;23;20411;-81
2022/04/11 13:41:47;;;;;;;4.90;3.53;;;29.60;26.00;;;;;;6132766;23;20987;-81
2022/04/11 13:44:15;;;;;;;5.50;4.10;;;29.20;26.40;;;;;;6137709;23;20418;-81
2022/04/11 13:46:42;;;;;;;4.43;4.13;;;28.00;26.90;;;;;;6137808;23;20412;-80
2022/04/11 13:49:09;;;;;;;4.90;3.70;;;27.20;28.00;;;;;;6138509;23;20413;-81
2022/04/11 13:51:37;;;;;;;4.90;4.50;;;26.70;29.10;;;;;;6135884;23;20426;-81
2022/04/11 13:54:06;;;;;;;4.60;4.20;;;25.70;29.50;;;;;;6134852;23;20407;-80
2022/04/11 13:56:33;;;;;;;4.50;4.10;;;25.40;29.80;;;;;;6135532;23;20427;-82
2022/04/11 13:59:00;;;;;;;4.20;3.90;;;25.00;30.10;;;;;;6144882;23;20432;-80
2022/04/11 14:01:27;;;;;;;4.40;4.00;;;25.00;29.70;;;;;;6155517;23;20498;-82
2022/04/11 14:03:55;;;;;;;4.67;4.27;;;24.30;30.00;;;;;;6155428;23;20442;-83
2022/04/11 14:06:21;;;;;;;5.27;4.87;;;24.00;31.70;;;;;;6150332;23;20422;-81
2022/04/11 14:08:48;;;;;;;5.20;3.43;;;23.60;30.80;;;;;;6132278;23;20496;-81
2022/04/11 14:11:16;;;;;;;6.03;4.13;;;23.50;31.80;;;;;;6132782;23;20462;-81
2022/04/11 14:13:43;;;;;;;3.50;3.20;;;23.40;31.60;;;;;;6134271;23;20410;-81
2022/04/11 14:16:10;;;;;;;3.97;3.67;;;23.50;31.90;;;;;;6134163;23;20485;-82
2022/04/11 14:18:36;;;;;;;5.10;4.13;;;24.10;31.50;;;;;;6145030;23;20434;-81
2022/04/11 14:21:03;;;;;;;4.90;4.60;;;23.60;31.30;;;;;;6147585;23;20474;-82
2022/04/11 14:23:31;;;;;;;4.17;3.87;;;23.60;31.70;;;;;;6139098;23;20399;-82
2022/04/11 14:25:58;;;;;;;4.27;3.80;;;24.30;31.40;;;;;;6138890;23;20414;-81
2022/04/11 14:28:27;;;;;;;4.40;4.10;;;24.70;31.20;;;;;;6135073;23;20407;-82
2022/04/11 14:30:54;;;;;;;4.63;4.23;;;23.90;30.90;;;;;;6136205;23;20417;-82
2022/04/11 14:33:21;;;;;;;4.30;4.00;;;23.20;32.00;;;;;;6141531;23;20408;-82
2022/04/11 14:35:48;;;;;;;4.40;4.00;;;23.20;32.30;;;;;;6144179;23;20387;-81
2022/04/11 14:38:15;;;;;;;4.70;4.30;;;23.70;32.30;;;;;;6138981;23;20970;-82
2022/04/11 14:40:44;;;;;;;6.27;5.10;;;23.10;31.80;;;;;;6140985;23;20406;-81
2022/04/11 14:43:11;;;;;;;5.27;4.50;;;23.00;33.10;;;;;;6138972;23;20897;-82
2022/04/11 14:45:40;;;;;;;5.20;4.70;;;22.90;34.20;;;;;;6134117;23;20420;-82
2022/04/11 14:48:09;;;;;;;4.47;3.60;;;22.90;34.10;;;;;;6134558;23;20403;-81
2022/04/11 14:50:36;;;;;;;4.27;3.83;;;22.70;33.70;;;;;;6132604;23;20467;-81
2022/04/11 14:53:04;;;;;;;3.87;3.57;;;23.60;33.50;;;;;;6132785;23;20434;-80
2022/04/11 14:55:31;;;;;;;4.40;4.00;;;23.90;33.10;;;;;;6138653;23;20477;-78
2022/04/11 14:57:58;;;;;;;4.07;3.67;;;24.00;32.40;;;;;;6137992;23;20399;-78
2022/04/11 15:00:26;;;;;;;4.80;4.40;;;23.60;31.50;;;;;;6137327;23;20420;-79
2022/04/11 15:02:54;;;;;;;7.07;5.37;;;23.70;32.00;;;;;;6137506;23;20508;-79
2022/04/11 15:05:20;;;;;;;3.83;3.43;;;23.60;31.40;;;;;;6131377;23;20464;-79
2022/04/11 15:07:47;;;;;;;4.00;3.50;;;23.60;31.70;;;;;;6129933;23;20468;-79
2022/04/11 15:10:15;;;;;;;4.00;3.70;;;24.10;31.10;;;;;;6134083;23;20502;-80
2022/04/11 15:12:42;;;;;;;5.70;3.73;;;24.40;31.00;;;;;;6127041;23;20497;-81
2022/04/11 15:15:10;;;;;;;4.50;4.20;;;24.80;31.00;;;;;;6128904;23;20438;-79
2022/04/11 15:17:37;;;;;;;4.77;3.77;;;24.70;31.50;;;;;;6133129;23;20421;-79
2022/04/11 15:20:06;;;;;;;5.33;4.83;;;24.40;31.20;;;;;;6131200;23;20414;-80
2022/04/11 15:22:33;;;;;;;5.23;3.73;;;24.30;31.30;;;;;;6127339;23;20457;-81
2022/04/11 15:25:00;;;;;;;4.17;3.77;;;24.30;31.30;;;;;;6142447;23;20491;-79
2022/04/11 15:27:27;;;;;;;5.07;4.57;;;23.90;31.90;;;;;;6142591;23;20888;-80
2022/04/11 15:29:54;;;;;;;5.20;3.93;;;22.90;31.80;;;;;;6134514;23;20412;-81
2022/04/11 15:32:21;;;;;;;4.33;3.93;;;22.90;31.90;;;;;;6131025;23;20947;-79
2022/04/11 15:34:47;;;;;;;4.17;3.77;;;22.90;32.50;;;;;;6129666;23;20412;-79
2022/04/11 15:37:16;;;;;;;4.47;3.50;;;22.50;32.40;;;;;;6129223;23;20412;-80
2022/04/11 15:39:43;;;;;;;4.20;3.67;;;22.00;33.50;;;;;;6127741;23;20413;-79
2022/04/11 15:42:11;;;;;;;3.67;3.33;;;21.50;34.00;;;;;;6126948;23;20450;-81
2022/04/11 15:44:37;;;;;;;4.70;4.30;;;21.20;35.30;;;;;;6128585;23;20403;-79
2022/04/11 15:47:05;;;;;;;6.47;4.63;;;20.80;35.60;;;;;;6129345;23;20899;-80
2022/04/11 15:49:32;;;;;;;9.30;4.90;;;20.60;36.90;;;;;;6125953;23;20407;-80
2022/04/11 15:52:00;;;;;;;4.73;4.17;;;20.20;37.10;;;;;;6126623;23;20432;-82
2022/04/11 15:54:28;;;;;;;4.37;4.00;;;20.10;37.00;;;;;;6126776;23;20484;-79
2022/04/11 15:56:55;;;;;;;4.00;3.60;;;20.10;36.80;;;;;;6129410;23;20438;-81
2022/04/11 15:59:22;;;;;;;4.40;4.00;;;20.00;37.20;;;;;;6142670;23;20390;-80
2022/04/11 16:01:48;;;;;;;5.30;4.03;;;19.70;37.20;;;;;;6135264;23;21183;-81
2022/04/11 16:04:15;;;;;;;4.93;4.27;;;19.50;37.70;;;;;;6126444;23;20417;-78
2022/04/11 16:06:42;;;;;;;4.50;4.10;;;19.30;38.00;;;;;;6127354;23;20860;-80
2022/04/11 16:09:10;;;;;;;4.23;3.93;;;19.30;38.50;;;;;;6126924;23;20449;-78
2022/04/11 16:15:01;;;;;;;4.50;4.10;;;19.50;38.90;;;;;;6129693;23;20350;-80
2022/04/11 16:20:50;;;;;;;4.60;4.03;;;19.00;40.20;;;;;;6128005;23;20836;-80
2022/04/11 16:23:17;;;;;;;5.10;4.03;;;18.70;40.50;;;;;;6128852;23;20442;-82
2022/04/11 16:25:44;;;;;;;4.97;4.17;;;18.30;41.20;;;;;;6128466;23;20415;-79
2022/04/11 16:28:11;;;;;;;3.97;3.67;;;18.20;41.60;;;;;;6129060;23;20720;-81
2022/04/11 16:30:39;;;;;;;4.60;4.20;;;18.20;41.70;;;;;;6128632;23;20396;-81
2022/04/11 16:36:27;;;;;;;5.13;4.63;;;18.20;42.00;;;;;;6129986;23;20907;-80
2022/04/11 16:42:16;;;;;;;4.47;4.07;;;18.00;42.20;;;;;;6142257;23;20446;-79
2022/04/11 16:44:42;;;;;;;5.13;4.63;;;17.80;42.70;;;;;;6136772;23;20411;-80
2022/04/11 16:50:32;;;;;;;4.50;3.73;;;17.70;43.20;;;;;;6133394;23;20748;-81
2022/04/11 16:52:59;;;;;;;4.63;4.23;;;17.60;42.90;;;;;;6132087;23;20424;-82
2022/04/11 16:55:26;;;;;;;4.17;3.80;;;17.40;43.20;;;;;;6130532;23;20466;-80
2022/04/11 16:57:53;;;;;;;5.83;4.30;;;17.40;43.60;;;;;;6131659;23;20419;-79
2022/04/11 17:00:20;;;;;;;5.30;4.80;;;17.30;43.70;;;;;;6129526;23;20754;-81
2022/04/11 17:02:46;;;;;;;6.23;4.37;;;17.20;43.80;;;;;;6132663;23;20974;-80
2022/04/11 17:05:13;;;;;;;5.17;4.27;;;17.10;44.00;;;;;;6136696;23;20443;-81
2022/04/11 17:07:41;;;;;;;4.50;4.10;;;17.00;44.10;;;;;;6129455;23;20419;-81
2022/04/11 17:10:08;;;;;;;8.13;4.37;;;17.00;44.30;;;;;;6129648;23;20412;-81
2022/04/11 17:12:35;;;;;;;5.77;4.20;;;16.90;44.20;;;;;;6128848;23;20800;-81
2022/04/11 17:15:02;;;;;;;6.00;4.03;;;16.80;44.30;;;;;;6132840;23;20420;-80
2022/04/11 17:20:13;;;;;;;4.97;3.87;;;16.80;44.90;;;;;;6135825;23;20396;-80
2022/04/11 17:22:41;;;;;;;9.90;5.83;;;16.70;45.20;;;;;;6130754;23;20448;-79
2022/04/11 17:25:08;;;;;;;5.03;3.73;;;16.70;45.40;;;;;;6130900;23;20408;-80
2022/04/11 17:27:35;;;;;;;4.30;3.90;;;16.60;45.50;;;;;;6131565;23;20412;-85
2022/04/11 17:30:02;;;;;;;5.20;3.60;;;16.50;45.90;;;;;;6131470;23;20404;-81
2022/04/11 17:32:29;;;;;;;5.37;4.87;;;16.50;46.00;;;;;;6131082;23;20427;-80
2022/04/11 17:34:56;;;;;;;3.70;3.33;;;16.30;46.40;;;;;;6132011;23;20407;-81
2022/04/11 17:37:22;;;;;;;8.00;4.13;;;16.30;46.60;;;;;;6130639;23;20463;-81
2022/04/11 17:39:50;;;;;;;3.80;3.50;;;16.20;46.80;;;;;;6131201;23;20407;-81
2022/04/11 17:42:17;;;;;;;4.60;4.20;;;16.10;46.90;;;;;;6138865;23;20489;-80
2022/04/11 17:44:43;;;;;;;4.00;3.60;;;16.10;47.20;;;;;;6142540;23;20427;-80
2022/04/11 17:47:10;;;;;;;3.87;3.53;;;16.00;47.30;;;;;;6134010;23;20411;-82
2022/04/11 17:49:37;;;;;;;3.90;3.60;;;15.90;47.70;;;;;;6138157;23;20459;-81
2022/04/11 17:52:04;;;;;;;4.53;3.80;;;15.80;48.10;;;;;;6133415;23;20424;-82
2022/04/11 17:54:30;;;;;;;4.90;4.23;;;15.70;48.50;;;;;;6132576;23;20403;-82
2022/04/11 17:56:59;;;;;;;4.23;3.93;;;15.70;48.50;;;;;;6131575;23;20395;-82
2022/04/11 17:59:28;;;;;;;4.07;3.67;;;15.60;48.90;;;;;;6130949;23;20439;-81
2022/04/11 18:01:55;;;;;;;8.27;4.90;;;15.50;49.20;;;;;;6151201;23;20432;-82
2022/04/11 18:04:22;;;;;;;5.47;4.37;;;15.50;49.50;;;;;;6153172;23;20396;-81
2022/04/11 18:06:48;;;;;;;5.67;4.37;;;15.40;49.90;;;;;;6153860;23;20414;-79
2022/04/11 18:09:15;;;;;;;7.23;4.90;;;15.30;50.30;;;;;;6140079;23;20413;-80
2022/04/11 18:11:42;;;;;;;5.27;4.63;;;15.30;50.90;;;;;;6145381;23;20427;-80
2022/04/11 18:14:11;;;;;;;4.97;4.47;;;15.20;51.30;;;;;;6139247;23;20431;-81
2022/04/11 18:20:00;;;;;;;4.33;3.90;;;15.20;51.90;;;;;;6132684;23;20352;-80
2022/04/11 18:22:27;;;;;;;9.20;4.57;;;15.10;52.40;;;;;;6131952;23;20823;-81
2022/04/11 18:24:54;;;;;;;7.57;5.53;;;15.00;52.50;;;;;;6132656;23;20411;-79
2022/04/11 18:33:29;;;;;;;6.70;4.77;;;14.90;53.00;;;;;;6134307;23;20525;-81
2022/04/11 18:35:56;;;;;;;6.03;4.40;;;14.80;53.30;;;;;;6134750;23;20447;-79
2022/04/11 18:38:23;;;;;;;4.73;4.10;;;14.70;53.50;;;;;;6139688;23;20422;-78
2022/04/11 18:40:50;;;;;;;4.00;3.60;;;14.60;53.60;;;;;;6139457;23;20407;-84
2022/04/11 18:43:19;;;;;;;5.17;4.37;;;14.60;53.80;;;;;;6136469;23;20988;-79
2022/04/11 18:45:47;;;;;;;5.60;4.90;;;14.60;54.30;;;;;;6135251;23;20463;-83
2022/04/11 18:48:14;;;;;;;7.07;6.37;;;14.60;54.10;;;;;;6132378;23;20388;-81
2022/04/11 18:50:44;;;;;;;5.80;4.93;;;14.60;54.30;;;;;;6130161;23;20741;-82
2022/04/11 18:53:13;;;;;;;5.67;5.17;;;14.50;54.00;;;;;;6133747;23;20389;-81
2022/04/11 18:55:43;;;;;;;5.50;4.93;;;14.50;54.40;;;;;;6133059;23;20384;-83
2022/04/11 18:58:10;;;;;;;7.17;6.03;;;14.50;54.50;;;;;;6147242;23;20416;-81
2022/04/11 19:00:37;;;;;;;5.93;5.33;;;14.40;54.70;;;;;;6139332;23;20396;-82
2022/04/11 19:03:07;;;;;;;8.17;5.40;;;14.30;55.10;;;;;;6134503;23;20443;-81
2022/04/11 19:05:36;;;;;;;7.47;5.27;;;14.30;55.30;;;;;;6132773;23;20394;-81
2022/04/11 19:08:02;;;;;;;5.73;4.90;;;14.20;54.90;;;;;;6136757;23;20399;-79
2022/04/11 19:10:29;;;;;;;6.43;5.67;;;14.10;55.10;;;;;;6137951;23;20434;-81
2022/04/11 19:12:56;;;;;;;6.30;5.10;;;14.10;55.30;;;;;;6131734;23;20439;-81
2022/04/11 19:15:24;;;;;;;7.17;5.53;;;14.00;55.40;;;;;;6135038;23;20416;-81
2022/04/11 19:17:51;;;;;;;6.07;5.47;;;14.00;55.30;;;;;;6132672;23;20941;-82
2022/04/11 19:20:20;;;;;;;5.83;4.90;;;13.90;55.50;;;;;;6130588;23;20403;-81
2022/04/11 19:22:47;;;;;;;7.90;4.93;;;13.90;55.70;;;;;;6130200;23;20459;-81
2022/04/11 19:25:14;;;;;;;6.20;5.60;;;13.80;55.60;;;;;;6138733;23;20423;-81
2022/04/11 19:27:41;;;;;;;7.07;6.37;;;13.80;56.00;;;;;;6131571;23;20400;-81
2022/04/11 19:30:11;;;;;;;6.93;5.53;;;13.80;55.90;;;;;;6137622;23;21189;-82
2022/04/11 19:32:38;;;;;;;6.63;5.83;;;13.80;56.00;;;;;;6135744;23;21123;-78
2022/04/11 19:35:05;;;;;;;9.07;5.10;;;13.70;56.30;;;;;;6133382;23;20417;-77
2022/04/11 19:37:36;;;;;;;5.77;5.27;;;13.70;56.40;;;;;;6136324;23;20410;-77
2022/04/11 19:40:04;;;;;;;10.40;5.67;;;13.70;56.40;;;;;;6131394;23;20420;-81
2022/04/11 19:42:31;;;;;;;10.87;7.40;;;13.60;56.80;;;;;;6129781;23;20436;-79
2022/04/11 19:44:58;;;;;;;6.80;6.10;;;13.50;57.40;;;;;;6129779;23;20410;-77
2022/04/11 19:49:48;;;;;;;8.13;6.27;;;13.40;57.70;;;;;;6130039;23;20705;-78
2022/04/11 19:50:11;;;;;;;8.57;6.10;;;13.40;58.10;;;;;;6128987;23;20484;-79
2022/04/11 19:52:39;;;;;;;7.27;6.57;;;13.30;58.40;;;;;;6126400;23;20448;-77
2022/04/11 19:55:07;;;;;;;7.77;6.97;;;13.30;58.80;;;;;;6125783;23;20186;-78
2022/04/11 19:57:33;;;;;;;7.20;6.40;;;13.20;58.90;;;;;;6129375;23;20407;-79
2022/04/11 20:00:00;;;;;;;8.10;6.03;;;13.20;59.00;;;;;;6127980;23;20432;-80
2022/04/11 20:02:27;;;;;;;9.67;6.90;;;13.10;59.20;;;;;;6125619;23;20433;-78
2022/04/11 20:04:53;;;;;;;8.90;7.30;;;13.10;59.30;;;;;;6125888;23;20409;-81
2022/04/11 20:07:20;;;;;;;9.40;6.87;;;13.10;59.50;;;;;;6125650;23;20409;-79
2022/04/11 20:09:48;;;;;;;8.00;6.50;;;13.00;59.70;;;;;;6127044;23;20427;-81
2022/04/11 20:12:15;;;;;;;7.97;6.63;;;13.00;60.20;;;;;;6127042;23;20943;-78
2022/04/11 20:14:41;;;;;;;7.93;7.00;;;13.00;60.40;;;;;;6125920;23;20890;-80
2022/04/11 20:17:08;;;;;;;11.67;7.17;;;13.00;59.90;;;;;;6125716;23;20416;-79
2022/04/11 20:19:35;;;;;;;10.97;7.10;;;12.90;60.40;;;;;;6126131;23;20418;-80
2022/04/11 20:22:01;;;;;;;8.90;6.20;;;12.80;60.70;;;;;;6125043;23;20442;-80
2022/04/11 20:24:28;;;;;;;8.70;7.13;;;12.80;61.00;;;;;;6125517;23;20506;-80
2022/04/11 20:26:56;;;;;;;9.73;7.50;;;12.70;61.60;;;;;;6129036;23;20478;-77
2022/04/11 20:29:23;;;;;;;9.70;6.67;;;12.80;61.40;;;;;;6131388;23;21158;-81
2022/04/11 20:31:50;;;;;;;10.70;7.53;;;12.80;62.30;;;;;;6126834;23;20428;-78
2022/04/11 20:34:17;;;;;;;10.77;8.27;;;12.80;62.70;;;;;;6126601;23;20487;-80
2022/04/11 20:36:44;;;;;;;9.90;7.33;;;12.70;62.30;;;;;;6125418;23;20411;-79
2022/04/11 20:39:11;;;;;;;10.30;7.70;;;12.80;63.60;;;;;;6126009;23;20419;-79
2022/04/11 20:41:40;;;;;;;9.90;6.97;;;12.80;63.20;;;;;;6125955;23;20801;-78
2022/04/11 20:44:09;;;;;;;8.37;6.70;;;12.70;63.90;;;;;;6125840;23;20470;-80
2022/04/11 20:46:38;;;;;;;11.10;8.00;;;12.70;63.70;;;;;;6126437;23;20470;-81
2022/04/11 20:49:05;;;;;;;10.23;8.30;;;12.70;63.70;;;;;;6130050;23;20411;-80
2022/04/11 20:51:31;;;;;;;9.03;7.57;;;12.60;64.20;;;;;;6126045;23;20433;-81
2022/04/11 20:53:58;;;;;;;10.80;8.83;;;12.50;64.20;;;;;;6126450;23;20388;-78
2022/04/11 20:56:25;;;;;;;9.27;7.70;;;12.50;64.50;;;;;;6132611;23;20408;-78
2022/04/11 20:58:54;;;;;;;13.23;8.20;;;12.40;64.90;;;;;;6129820;23;20412;-81
2022/04/11 21:01:22;;;;;;;9.20;7.83;;;12.40;65.70;;;;;;6135679;23;20436;-82